createdAt,value
2023-03-19T00:02:17.642Z,7.49
2023-03-19T00:04:35.577Z,7.49
2023-03-19T00:07:01.901Z,7.47
2023-03-19T00:09:28.244Z,7.47
2023-03-19T00:11:54.624Z,7.48
2023-03-19T00:14:21.010Z,7.47
2023-03-19T00:16:47.411Z,7.47
2023-03-19T00:19:13.762Z,7.46
2023-03-19T00:21:40.128Z,7.44
2023-03-19T00:24:06.480Z,7.44
2023-03-19T00:26:32.834Z,7.41
2023-03-19T00:28:59.173Z,7.40
2023-03-19T00:31:25.529Z,7.38
2023-03-19T00:33:51.860Z,7.38
2023-03-19T00:36:18.281Z,7.38
2023-03-19T00:38:44.607Z,7.37
2023-03-19T00:41:11.017Z,7.37
2023-03-19T00:43:37.364Z,7.35
2023-03-19T00:46:03.711Z,7.34
2023-03-19T00:48:30.063Z,7.33
2023-03-19T00:50:56.380Z,7.32
2023-03-19T00:53:22.764Z,7.29
2023-03-19T00:55:49.092Z,7.29
2023-03-19T00:58:15.470Z,7.31
2023-03-19T01:00:41.792Z,7.30
2023-03-19T01:03:08.158Z,7.29
2023-03-19T01:05:34.757Z,7.28
2023-03-19T01:08:00.840Z,7.25
2023-03-19T01:10:27.164Z,7.23
2023-03-19T01:12:53.544Z,7.22
2023-03-19T01:15:19.854Z,7.21
2023-03-19T01:17:46.241Z,7.21
2023-03-19T01:20:12.549Z,7.19
2023-03-19T01:22:38.948Z,7.17
2023-03-19T01:25:05.254Z,7.15
2023-03-19T01:27:31.631Z,7.14
2023-03-19T01:29:57.955Z,7.12
2023-03-19T01:32:24.382Z,7.11
2023-03-19T01:34:50.715Z,7.12
2023-03-19T01:37:17.054Z,7.10
2023-03-19T01:39:43.373Z,7.07
2023-03-19T01:42:09.718Z,7.06
2023-03-19T01:44:36.121Z,7.06
2023-03-19T01:47:02.477Z,7.03
2023-03-19T01:49:28.832Z,7.01
2023-03-19T01:51:55.222Z,6.98
2023-03-19T01:54:21.541Z,6.98
2023-03-19T01:56:47.948Z,6.96
2023-03-19T01:59:14.258Z,6.94
2023-03-19T02:01:40.666Z,6.94
2023-03-19T02:04:06.999Z,6.93
2023-03-19T02:06:33.320Z,6.91
2023-03-19T02:08:59.694Z,6.89
2023-03-19T02:11:26.021Z,6.90
2023-03-19T02:13:52.367Z,6.90
2023-03-19T02:16:18.719Z,6.89
2023-03-19T02:18:45.016Z,6.87
2023-03-19T02:21:11.363Z,6.85
2023-03-19T02:23:37.803Z,6.84
2023-03-19T02:26:04.129Z,6.83
2023-03-19T02:28:30.490Z,6.82
2023-03-19T02:30:56.869Z,6.82
2023-03-19T02:33:23.225Z,6.82
2023-03-19T02:35:49.574Z,6.82
2023-03-19T02:38:15.946Z,6.79
2023-03-19T02:40:42.295Z,6.80
2023-03-19T02:43:08.657Z,6.80
2023-03-19T02:45:35.080Z,6.79
2023-03-19T02:48:01.383Z,6.78
2023-03-19T02:50:27.769Z,6.79
2023-03-19T02:52:54.129Z,6.78
2023-03-19T02:55:20.457Z,6.78
2023-03-19T02:57:46.780Z,6.76
2023-03-19T03:00:13.169Z,6.76
2023-03-19T03:02:39.500Z,6.77
2023-03-19T03:05:05.849Z,6.76
2023-03-19T03:07:32.242Z,6.77
2023-03-19T03:09:58.579Z,6.76
2023-03-19T03:12:24.938Z,6.75
2023-03-19T03:14:51.322Z,6.76
2023-03-19T03:17:17.678Z,6.73
2023-03-19T03:19:44.083Z,6.75
2023-03-19T03:22:10.416Z,6.74
2023-03-19T03:24:36.796Z,6.72
2023-03-19T03:27:03.107Z,6.71
2023-03-19T03:29:29.475Z,6.70
2023-03-19T03:31:55.894Z,6.70
2023-03-19T03:34:22.228Z,6.70
2023-03-19T03:36:48.648Z,6.68
2023-03-19T03:39:14.946Z,6.67
2023-03-19T03:41:41.301Z,6.65
2023-03-19T03:44:07.655Z,6.61
2023-03-19T03:46:33.985Z,6.61
2023-03-19T03:49:00.342Z,6.59
2023-03-19T03:51:26.660Z,6.58
2023-03-19T03:53:53.012Z,6.58
2023-03-19T03:56:19.371Z,6.56
2023-03-19T03:58:45.765Z,6.54
2023-03-19T04:01:12.080Z,6.54
2023-03-19T04:03:38.476Z,6.52
2023-03-19T04:06:04.747Z,6.53
2023-03-19T04:08:31.189Z,6.50
2023-03-19T04:10:57.557Z,6.48
2023-03-19T04:13:23.924Z,6.48
2023-03-19T04:15:50.234Z,6.47
2023-03-19T04:18:16.623Z,6.48
2023-03-19T04:20:43.016Z,6.46
2023-03-19T04:23:09.364Z,6.47
2023-03-19T04:25:35.735Z,6.46
2023-03-19T04:28:02.132Z,6.46
2023-03-19T04:30:28.492Z,6.45
2023-03-19T04:32:54.895Z,6.46
2023-03-19T04:35:21.191Z,6.45
2023-03-19T04:37:47.532Z,6.44
2023-03-19T04:40:13.900Z,6.46
2023-03-19T04:42:40.243Z,6.47
2023-03-19T04:45:06.600Z,6.52
2023-03-19T04:47:32.949Z,6.59
2023-03-19T04:49:59.276Z,6.67
2023-03-19T04:52:25.664Z,6.76
2023-03-19T04:54:52.039Z,6.86
2023-03-19T04:57:18.375Z,6.99
2023-03-19T04:59:44.729Z,7.14
2023-03-19T05:02:11.118Z,7.28
2023-03-19T05:04:37.442Z,7.44
2023-03-19T05:07:03.777Z,7.62
2023-03-19T05:09:30.091Z,7.79
2023-03-19T05:11:56.440Z,7.99
2023-03-19T05:14:22.752Z,8.17
2023-03-19T05:16:49.090Z,8.35
2023-03-19T05:19:15.450Z,8.53
2023-03-19T05:21:41.831Z,8.70
2023-03-19T05:24:08.569Z,8.88
2023-03-19T05:26:34.966Z,9.06
2023-03-19T05:29:01.344Z,9.25
2023-03-19T05:31:27.680Z,9.43
2023-03-19T05:33:54.044Z,9.65
2023-03-19T05:36:20.456Z,9.85
2023-03-19T05:38:47.189Z,10.03
2023-03-19T05:41:13.574Z,10.25
2023-03-19T05:43:39.882Z,10.44
2023-03-19T05:46:06.321Z,10.66
2023-03-19T05:48:32.630Z,10.88
2023-03-19T05:50:59.002Z,11.09
2023-03-19T05:53:25.368Z,11.29
2023-03-19T05:55:51.713Z,11.52
2023-03-19T05:58:18.039Z,11.75
2023-03-19T06:00:44.434Z,11.97
2023-03-19T06:03:10.944Z,12.20
2023-03-19T06:05:37.232Z,12.43
2023-03-19T06:08:03.578Z,12.67
2023-03-19T06:10:30.012Z,12.90
2023-03-19T06:12:56.276Z,13.14
2023-03-19T06:15:22.679Z,13.37
2023-03-19T06:17:49.004Z,13.59
2023-03-19T06:20:15.402Z,13.83
2023-03-19T06:22:41.788Z,14.06
2023-03-19T06:25:08.133Z,14.28
2023-03-19T06:27:34.458Z,14.50
2023-03-19T06:30:00.840Z,14.73
2023-03-19T06:32:27.231Z,14.97
2023-03-19T06:34:53.571Z,15.20
2023-03-19T06:37:19.953Z,15.42
2023-03-19T06:39:46.274Z,15.66
2023-03-19T06:42:12.664Z,15.89
2023-03-19T06:44:39.019Z,16.12
2023-03-19T06:47:05.383Z,16.35
2023-03-19T06:49:31.829Z,16.61
2023-03-19T06:51:58.145Z,16.82
2023-03-19T06:54:24.527Z,17.08
2023-03-19T06:56:50.922Z,17.31
2023-03-19T06:59:17.337Z,17.56
2023-03-19T07:01:43.724Z,17.79
2023-03-19T07:04:10.173Z,18.02
2023-03-19T07:06:36.466Z,18.27
2023-03-19T07:09:02.809Z,18.51
2023-03-19T07:11:29.130Z,18.74
2023-03-19T07:13:55.507Z,18.98
2023-03-19T07:16:21.889Z,19.17
2023-03-19T07:18:48.233Z,18.16
2023-03-19T07:21:14.560Z,17.12
2023-03-19T07:23:40.953Z,16.58
2023-03-19T07:26:07.317Z,16.36
2023-03-19T07:28:35.812Z,16.15
2023-03-19T07:31:00.094Z,16.12
2023-03-19T07:33:26.400Z,16.16
2023-03-19T07:35:52.895Z,16.21
2023-03-19T07:38:19.194Z,16.43
2023-03-19T07:40:59.063Z,16.59
2023-03-19T07:43:11.940Z,16.56
2023-03-19T07:45:38.317Z,16.65
2023-03-19T07:48:04.663Z,16.65
2023-03-19T07:50:31.002Z,16.81
2023-03-19T07:52:57.372Z,17.01
2023-03-19T07:55:23.749Z,17.25
2023-03-19T07:57:50.129Z,17.58
2023-03-19T08:00:16.469Z,17.85
2023-03-19T08:02:42.919Z,17.97
2023-03-19T08:05:09.172Z,18.15
2023-03-19T08:07:35.739Z,18.30
2023-03-19T08:10:02.157Z,18.69
2023-03-19T08:12:28.553Z,18.81
2023-03-19T08:14:54.902Z,18.80
2023-03-19T08:17:21.237Z,18.95
2023-03-19T08:19:47.618Z,19.16
2023-03-19T08:22:13.953Z,19.30
2023-03-19T08:24:40.357Z,19.31
2023-03-19T08:27:06.797Z,19.71
2023-03-19T08:29:33.169Z,20.15
2023-03-19T08:31:59.492Z,20.03
2023-03-19T08:34:25.891Z,19.97
2023-03-19T08:36:52.234Z,20.41
2023-03-19T08:39:18.623Z,20.97
2023-03-19T08:41:44.965Z,21.44
2023-03-19T08:44:11.396Z,21.71
2023-03-19T08:46:37.852Z,21.93
2023-03-19T08:49:04.217Z,21.90
2023-03-19T08:51:30.574Z,21.77
2023-03-19T08:53:57.116Z,21.70
2023-03-19T08:56:23.428Z,21.69
2023-03-19T08:58:49.828Z,21.65
2023-03-19T09:01:16.284Z,21.72
2023-03-19T09:03:42.678Z,21.85
2023-03-19T09:06:09.000Z,21.90
2023-03-19T09:08:35.347Z,21.96
2023-03-19T09:11:01.727Z,22.07
2023-03-19T09:13:28.129Z,22.27
2023-03-19T09:15:54.589Z,22.50
2023-03-19T09:18:20.880Z,22.67
2023-03-19T09:20:47.245Z,22.81
2023-03-19T09:23:13.602Z,22.94
2023-03-19T09:25:39.936Z,23.00
2023-03-19T09:28:06.335Z,23.05
2023-03-19T09:30:32.674Z,23.21
2023-03-19T09:32:59.106Z,23.28
2023-03-19T09:35:25.410Z,23.28
2023-03-19T09:37:52.183Z,23.47
2023-03-19T09:40:18.291Z,23.67
2023-03-19T09:42:44.691Z,23.87
2023-03-19T09:45:11.032Z,23.96
2023-03-19T09:47:37.478Z,23.91
2023-03-19T09:50:03.828Z,23.74
2023-03-19T09:52:30.199Z,23.69
2023-03-19T09:54:56.566Z,23.77
2023-03-19T09:57:22.924Z,23.80
2023-03-19T09:59:49.601Z,23.92
2023-03-19T10:02:15.974Z,24.03
2023-03-19T10:04:42.353Z,24.18
2023-03-19T10:07:08.753Z,24.34
2023-03-19T10:09:35.082Z,24.56
2023-03-19T10:12:01.884Z,24.86
2023-03-19T10:14:28.241Z,24.98
2023-03-19T10:16:54.643Z,25.07
2023-03-19T10:19:22.230Z,25.09
2023-03-19T10:21:47.385Z,25.20
2023-03-19T10:24:13.752Z,25.37
2023-03-19T10:26:40.102Z,25.50
2023-03-19T10:29:06.506Z,25.61
2023-03-19T10:31:32.944Z,25.69
2023-03-19T10:33:59.264Z,25.72
2023-03-19T10:36:25.676Z,25.81
2023-03-19T10:38:52.061Z,25.93
2023-03-19T10:41:18.397Z,26.08
2023-03-19T10:43:44.722Z,26.22
2023-03-19T10:46:11.173Z,26.40
2023-03-19T10:48:37.588Z,26.58
2023-03-19T10:51:04.040Z,26.72
2023-03-19T10:53:30.422Z,26.84
2023-03-19T10:55:56.766Z,26.86
2023-03-19T10:58:23.152Z,26.88
2023-03-19T11:00:49.575Z,26.84
2023-03-19T11:03:15.843Z,26.76
2023-03-19T11:05:42.223Z,26.68
2023-03-19T11:08:08.542Z,26.64
2023-03-19T11:10:34.902Z,26.44
2023-03-19T11:13:01.254Z,26.35
2023-03-19T11:15:27.622Z,26.20
2023-03-19T11:17:53.993Z,26.14
2023-03-19T11:20:20.351Z,26.13
2023-03-19T11:22:46.702Z,26.13
2023-03-19T11:25:13.093Z,26.01
2023-03-19T11:27:39.514Z,25.90
2023-03-19T11:30:05.887Z,25.92
2023-03-19T11:32:32.467Z,26.00
2023-03-19T11:34:58.651Z,26.05
2023-03-19T11:37:24.979Z,26.01
2023-03-19T11:39:51.391Z,26.05
2023-03-19T11:42:17.791Z,26.00
2023-03-19T11:44:44.183Z,25.90
2023-03-19T11:47:26.182Z,25.75
2023-03-19T11:49:36.904Z,25.80
2023-03-19T11:52:03.334Z,25.88
2023-03-19T11:54:29.820Z,25.96
2023-03-19T11:56:56.162Z,25.95
2023-03-19T11:59:22.565Z,25.96
2023-03-19T12:01:48.933Z,25.97
2023-03-19T12:04:15.359Z,25.91
2023-03-19T12:06:41.698Z,25.92
2023-03-19T12:09:08.071Z,25.96
2023-03-19T12:11:34.436Z,25.94
2023-03-19T12:14:00.919Z,25.91
2023-03-19T12:16:27.282Z,25.83
2023-03-19T12:18:53.634Z,25.79
2023-03-19T12:21:20.040Z,25.74
2023-03-19T12:23:46.428Z,25.57
2023-03-19T12:26:12.783Z,25.44
2023-03-19T12:28:39.171Z,25.43
2023-03-19T12:31:05.540Z,25.50
2023-03-19T12:33:31.859Z,25.60
2023-03-19T12:35:58.464Z,25.70
2023-03-19T12:38:24.747Z,25.78
2023-03-19T12:40:51.120Z,25.83
2023-03-19T12:43:17.480Z,25.86
2023-03-19T12:45:43.796Z,25.86
2023-03-19T12:48:10.205Z,25.85
2023-03-19T12:50:36.787Z,25.83
2023-03-19T12:53:02.901Z,25.89
2023-03-19T12:55:29.294Z,25.89
2023-03-19T12:57:55.682Z,25.77
2023-03-19T13:00:21.997Z,25.68
2023-03-19T13:02:48.508Z,25.75
2023-03-19T13:05:14.757Z,25.85
2023-03-19T13:07:41.150Z,25.87
2023-03-19T13:10:07.470Z,25.85
2023-03-19T13:12:33.811Z,25.84
2023-03-19T13:15:00.221Z,25.75
2023-03-19T13:17:26.568Z,25.63
2023-03-19T13:19:52.891Z,25.55
2023-03-19T13:22:19.229Z,25.45
2023-03-19T13:24:45.562Z,25.41
2023-03-19T13:27:11.925Z,25.24
2023-03-19T13:29:38.295Z,24.97
2023-03-19T13:32:04.706Z,24.85
2023-03-19T13:34:31.012Z,24.75
2023-03-19T13:36:57.453Z,24.62
2023-03-19T13:39:23.805Z,24.45
2023-03-19T13:41:50.164Z,24.23
2023-03-19T13:44:16.510Z,24.09
2023-03-19T13:46:42.907Z,23.98
2023-03-19T13:49:09.207Z,23.87
2023-03-19T13:51:35.658Z,23.79
2023-03-19T13:54:02.025Z,23.59
2023-03-19T13:56:30.367Z,23.40
2023-03-19T13:58:54.744Z,23.27
2023-03-19T14:01:21.598Z,23.16
2023-03-19T14:03:47.964Z,23.02
2023-03-19T14:06:14.356Z,22.92
2023-03-19T14:08:40.709Z,22.77
2023-03-19T14:11:07.870Z,22.62
2023-03-19T14:13:34.267Z,22.52
2023-03-19T14:16:00.618Z,22.44
2023-03-19T14:18:26.976Z,22.35
2023-03-19T14:20:54.335Z,22.27
2023-03-19T14:23:20.199Z,22.22
2023-03-19T14:25:47.995Z,22.15
2023-03-19T14:28:12.681Z,22.11
2023-03-19T14:30:39.048Z,22.02
2023-03-19T14:33:05.403Z,21.92
2023-03-19T14:35:31.808Z,21.85
2023-03-19T14:37:58.149Z,21.78
2023-03-19T14:40:24.532Z,21.71
2023-03-19T14:42:50.885Z,21.70
2023-03-19T14:45:17.245Z,21.60
2023-03-19T14:47:43.737Z,21.44
2023-03-19T14:50:10.139Z,21.45
2023-03-19T14:52:36.495Z,21.60
2023-03-19T14:55:02.918Z,21.74
2023-03-19T14:57:29.272Z,21.79
2023-03-19T14:59:55.665Z,21.62
2023-03-19T15:02:22.063Z,21.42
2023-03-19T15:04:48.506Z,21.22
2023-03-19T15:07:14.920Z,21.07
2023-03-19T15:09:41.303Z,20.93
2023-03-19T15:12:07.704Z,20.88
2023-03-19T15:14:34.072Z,20.93
2023-03-19T15:17:00.454Z,20.88
2023-03-19T15:19:26.825Z,20.73
2023-03-19T15:21:53.190Z,20.60
2023-03-19T15:24:19.719Z,20.50
2023-03-19T15:26:53.445Z,20.35
2023-03-19T15:29:19.802Z,20.23
2023-03-19T15:31:52.720Z,20.13
2023-03-19T15:34:12.663Z,20.01
2023-03-19T15:36:39.791Z,19.97
2023-03-19T15:39:06.204Z,19.90
2023-03-19T15:41:35.695Z,19.77
2023-03-19T15:44:02.047Z,19.67
2023-03-19T15:46:30.987Z,19.62
2023-03-19T15:48:58.543Z,19.59
2023-03-19T15:51:24.934Z,19.53
2023-03-19T15:53:51.347Z,19.49
2023-03-19T15:56:17.979Z,19.43
2023-03-19T15:58:47.923Z,19.36
2023-03-19T16:01:16.789Z,19.32
2023-03-19T16:03:43.055Z,19.26
2023-03-19T16:06:09.460Z,19.21
2023-03-19T16:08:35.850Z,19.18
2023-03-19T16:11:03.362Z,19.12
2023-03-19T16:13:30.691Z,19.04
2023-03-19T16:15:57.401Z,18.95
2023-03-19T16:18:23.805Z,18.85
2023-03-19T16:20:50.125Z,18.77
2023-03-19T16:23:16.538Z,18.71
2023-03-19T16:25:43.943Z,18.65
2023-03-19T16:28:10.288Z,18.75
2023-03-19T16:30:36.924Z,18.71
2023-03-19T16:33:05.244Z,18.63
2023-03-19T16:35:31.644Z,18.57
2023-03-19T16:37:57.853Z,18.49
2023-03-19T16:40:24.202Z,18.42
2023-03-19T16:42:50.610Z,18.35
2023-03-19T16:45:16.961Z,18.29
2023-03-19T16:47:43.407Z,18.23
2023-03-19T16:50:10.207Z,18.15
2023-03-19T16:52:36.611Z,18.10
2023-03-19T16:55:03.194Z,18.05
2023-03-19T16:57:34.336Z,18.00
2023-03-19T17:00:01.078Z,17.94
2023-03-19T17:02:27.450Z,17.89
2023-03-19T17:04:53.936Z,17.84
2023-03-19T17:07:20.175Z,17.78
2023-03-19T17:09:47.855Z,17.71
2023-03-19T17:12:14.189Z,17.66
2023-03-19T17:14:40.528Z,17.59
2023-03-19T17:17:06.872Z,17.53
2023-03-19T17:19:34.364Z,17.48
2023-03-19T17:22:00.722Z,17.41
2023-03-19T17:24:31.270Z,17.35
2023-03-19T17:27:01.143Z,17.31
2023-03-19T17:29:27.474Z,17.27
2023-03-19T17:31:53.998Z,17.22
2023-03-19T17:34:20.198Z,17.19
2023-03-19T17:36:46.554Z,17.15
2023-03-19T17:39:12.924Z,17.09
2023-03-19T17:41:39.337Z,17.03
2023-03-19T17:44:06.723Z,16.98
2023-03-19T17:46:32.111Z,16.92
2023-03-19T17:48:58.385Z,16.88
2023-03-19T17:51:24.774Z,16.81
2023-03-19T17:53:51.152Z,16.72
2023-03-19T17:56:17.567Z,16.64
2023-03-19T17:58:43.982Z,16.58
2023-03-19T18:01:10.343Z,16.52
2023-03-19T18:03:36.668Z,16.47
2023-03-19T18:06:03.037Z,16.40
2023-03-19T18:08:29.414Z,16.32
2023-03-19T18:10:55.804Z,16.25
2023-03-19T18:13:22.128Z,16.19
2023-03-19T18:15:48.507Z,16.14
2023-03-19T18:18:14.841Z,16.08
2023-03-19T18:20:41.221Z,16.05
2023-03-19T18:23:07.593Z,16.01
2023-03-19T18:25:33.928Z,15.97
2023-03-19T18:28:00.346Z,15.90
2023-03-19T18:30:26.675Z,15.82
2023-03-19T18:32:53.131Z,15.73
2023-03-19T18:35:19.513Z,15.69
2023-03-19T18:37:46.891Z,15.67
2023-03-19T18:40:13.236Z,15.62
2023-03-19T18:42:39.618Z,15.56
2023-03-19T18:45:05.986Z,15.51
2023-03-19T18:47:32.370Z,15.47
2023-03-19T18:49:58.788Z,15.42
2023-03-19T18:52:25.209Z,15.36
2023-03-19T18:54:51.848Z,15.29
2023-03-19T18:57:18.241Z,15.21
2023-03-19T18:59:44.604Z,15.15
2023-03-19T19:02:10.956Z,15.13
2023-03-19T19:04:37.392Z,15.07
2023-03-19T19:07:03.669Z,15.03
2023-03-19T19:09:30.066Z,15.02
2023-03-19T19:11:57.507Z,15.04
2023-03-19T19:14:22.711Z,15.00
2023-03-19T19:16:49.162Z,14.93
2023-03-19T19:19:15.449Z,14.83
2023-03-19T19:21:41.837Z,14.81
2023-03-19T19:24:08.218Z,14.78
2023-03-19T19:26:34.535Z,14.76
2023-03-19T19:29:00.879Z,14.69
2023-03-19T19:31:27.364Z,14.61
2023-03-19T19:33:53.666Z,14.54
2023-03-19T19:36:20.020Z,14.50
2023-03-19T19:38:46.629Z,14.48
2023-03-19T19:41:12.965Z,14.44
2023-03-19T19:43:39.289Z,14.40
2023-03-19T19:46:05.655Z,14.34
2023-03-19T19:48:32.009Z,14.30
2023-03-19T19:50:58.371Z,14.24
2023-03-19T19:53:24.967Z,14.18
2023-03-19T19:55:51.357Z,14.12
2023-03-19T19:58:17.683Z,14.11
2023-03-19T20:00:50.343Z,14.06
2023-03-19T20:03:10.422Z,14.01
2023-03-19T20:05:36.935Z,13.95
2023-03-19T20:08:03.290Z,13.88
2023-03-19T20:10:29.680Z,13.86
2023-03-19T20:12:56.082Z,13.83
2023-03-19T20:15:24.657Z,13.83
2023-03-19T20:17:50.984Z,13.79
2023-03-19T20:20:17.330Z,13.75
2023-03-19T20:22:43.675Z,13.75
2023-03-19T20:25:10.082Z,13.73
2023-03-19T20:27:36.443Z,13.71
2023-03-19T20:30:02.821Z,13.68
2023-03-19T20:32:29.686Z,13.63
2023-03-19T20:34:56.137Z,13.60
2023-03-19T20:37:22.490Z,13.58
2023-03-19T20:39:48.895Z,13.55
2023-03-19T20:42:15.277Z,13.51
2023-03-19T20:44:41.620Z,13.48
2023-03-19T20:47:07.982Z,13.44
2023-03-19T20:49:34.341Z,13.40
2023-03-19T20:52:00.928Z,13.33
2023-03-19T20:54:29.734Z,13.28
2023-03-19T20:56:56.088Z,13.24
2023-03-19T20:59:22.476Z,13.21
2023-03-19T21:01:48.931Z,13.20
2023-03-19T21:04:15.216Z,13.17
2023-03-19T21:06:52.521Z,13.13
2023-03-19T21:09:07.950Z,13.09
2023-03-19T21:11:34.302Z,13.05
2023-03-19T21:14:00.678Z,13.03
2023-03-19T21:16:27.076Z,12.99
2023-03-19T21:18:53.488Z,12.96
2023-03-19T21:21:19.863Z,12.90
2023-03-19T21:23:46.633Z,12.81
2023-03-19T21:26:12.999Z,12.76
2023-03-19T21:28:39.343Z,12.71
2023-03-19T21:31:05.739Z,12.66
2023-03-19T21:33:32.127Z,12.61
2023-03-19T21:35:58.472Z,12.60
2023-03-19T21:38:24.788Z,12.58
2023-03-19T21:40:51.196Z,12.56
2023-03-19T21:43:17.729Z,12.52
2023-03-19T21:45:44.073Z,12.49
2023-03-19T21:48:10.414Z,12.44
2023-03-19T21:50:37.770Z,12.40
2023-03-19T21:53:04.114Z,12.37
2023-03-19T21:55:30.503Z,12.34
2023-03-19T21:57:56.852Z,12.31
2023-03-19T22:00:23.248Z,12.29
2023-03-19T22:02:49.618Z,12.25
2023-03-19T22:05:15.932Z,12.22
2023-03-19T22:07:42.336Z,12.19
2023-03-19T22:10:08.723Z,12.16
2023-03-19T22:12:35.118Z,12.13
2023-03-19T22:15:01.512Z,12.09
2023-03-19T22:17:27.885Z,12.05
2023-03-19T22:19:54.321Z,12.01
2023-03-19T22:22:20.710Z,11.97
2023-03-19T22:24:47.082Z,11.95
2023-03-19T22:27:13.482Z,11.92
2023-03-19T22:29:39.802Z,11.88
2023-03-19T22:32:06.217Z,11.86
2023-03-19T22:34:32.555Z,11.83
2023-03-19T22:36:58.962Z,11.80
2023-03-19T22:39:25.321Z,11.77
2023-03-19T22:41:51.715Z,11.75
2023-03-19T22:44:18.049Z,11.71
2023-03-19T22:46:44.453Z,11.69
2023-03-19T22:49:10.814Z,11.66
2023-03-19T22:51:37.199Z,11.63
2023-03-19T22:54:03.561Z,11.61
2023-03-19T22:56:29.904Z,11.58
2023-03-19T22:58:56.233Z,11.53
2023-03-19T23:01:22.661Z,11.52
2023-03-19T23:03:48.929Z,11.50
2023-03-19T23:06:28.696Z,11.47
2023-03-19T23:08:41.660Z,11.45
2023-03-19T23:11:08.067Z,11.43
2023-03-19T23:13:34.445Z,11.43
2023-03-19T23:16:00.867Z,11.40
2023-03-19T23:18:27.269Z,11.39
2023-03-19T23:20:53.693Z,11.36
2023-03-19T23:23:19.985Z,11.33
2023-03-19T23:25:46.376Z,11.32
2023-03-19T23:28:12.690Z,11.30
2023-03-19T23:30:39.099Z,11.27
2023-03-19T23:33:05.419Z,11.26
2023-03-19T23:35:31.808Z,11.24
2023-03-19T23:37:58.141Z,11.24
2023-03-19T23:40:24.613Z,11.21
2023-03-19T23:42:50.948Z,11.20
2023-03-19T23:45:17.313Z,11.18
2023-03-19T23:47:43.666Z,11.16
2023-03-19T23:50:10.010Z,11.14
2023-03-19T23:52:36.344Z,11.14
2023-03-19T23:55:02.838Z,11.14
2023-03-19T23:57:29.127Z,11.12
2023-03-19T23:59:55.470Z,11.10
